sensor_id;sensor_type;location;lat;lon;timestamp;P1;durP1;ratioP1;P2;durP2;ratioP2
13969;SDS011;7057;49.984;8.404;2022-11-15T00:00:02;15.67;;;8.60;;
13969;SDS011;7057;49.984;8.404;2022-11-15T00:02:29;12.90;;;9.50;;
13969;SDS011;7057;49.984;8.404;2022-11-15T00:04:57;11.87;;;8.57;;
13969;SDS011;7057;49.984;8.404;2022-11-15T00:07:24;11.83;;;8.47;;
13969;SDS011;7057;49.984;8.404;2022-11-15T00:09:51;13.27;;;8.97;;
13969;SDS011;7057;49.984;8.404;2022-11-15T00:12:18;14.37;;;9.70;;
13969;SDS011;7057;49.984;8.404;2022-11-15T00:14:47;10.77;;;8.47;;
13969;SDS011;7057;49.984;8.404;2022-11-15T00:17:14;14.83;;;10.33;;
13969;SDS011;7057;49.984;8.404;2022-11-15T00:19:41;16.37;;;9.60;;
13969;SDS011;7057;49.984;8.404;2022-11-15T00:22:08;14.23;;;9.10;;
13969;SDS011;7057;49.984;8.404;2022-11-15T00:24:35;16.83;;;9.00;;
13969;SDS011;7057;49.984;8.404;2022-11-15T00:27:02;13.90;;;9.13;;
13969;SDS011;7057;49.984;8.404;2022-11-15T00:29:29;14.23;;;8.60;;
13969;SDS011;7057;49.984;8.404;2022-11-15T00:31:58;14.87;;;9.43;;
13969;SDS011;7057;49.984;8.404;2022-11-15T00:34:25;11.77;;;8.93;;
13969;SDS011;7057;49.984;8.404;2022-11-15T00:36:52;14.27;;;8.93;;
13969;SDS011;7057;49.984;8.404;2022-11-15T00:39:19;13.47;;;9.53;;
13969;SDS011;7057;49.984;8.404;2022-11-15T00:41:46;13.40;;;9.10;;
13969;SDS011;7057;49.984;8.404;2022-11-15T00:44:14;12.37;;;8.57;;
13969;SDS011;7057;49.984;8.404;2022-11-15T00:46:41;12.00;;;8.80;;
13969;SDS011;7057;49.984;8.404;2022-11-15T00:49:09;13.07;;;9.13;;
13969;SDS011;7057;49.984;8.404;2022-11-15T00:51:36;11.90;;;8.43;;
13969;SDS011;7057;49.984;8.404;2022-11-15T00:54:04;11.10;;;8.30;;
13969;SDS011;7057;49.984;8.404;2022-11-15T00:56:31;12.37;;;8.47;;
13969;SDS011;7057;49.984;8.404;2022-11-15T00:58:58;10.73;;;8.10;;
13969;SDS011;7057;49.984;8.404;2022-11-15T01:01:25;11.70;;;8.50;;
13969;SDS011;7057;49.984;8.404;2022-11-15T01:03:53;12.97;;;8.90;;
13969;SDS011;7057;49.984;8.404;2022-11-15T01:06:21;11.20;;;8.50;;
13969;SDS011;7057;49.984;8.404;2022-11-15T01:08:48;9.50;;;7.40;;
13969;SDS011;7057;49.984;8.404;2022-11-15T01:11:15;13.00;;;8.57;;
13969;SDS011;7057;49.984;8.404;2022-11-15T01:13:43;13.00;;;8.43;;
13969;SDS011;7057;49.984;8.404;2022-11-15T01:16:11;10.87;;;7.67;;
13969;SDS011;7057;49.984;8.404;2022-11-15T01:18:40;14.37;;;8.53;;
13969;SDS011;7057;49.984;8.404;2022-11-15T01:21:08;11.00;;;8.17;;
13969;SDS011;7057;49.984;8.404;2022-11-15T01:23:38;12.87;;;9.27;;
13969;SDS011;7057;49.984;8.404;2022-11-15T01:26:06;11.97;;;8.37;;
13969;SDS011;7057;49.984;8.404;2022-11-15T01:28:36;9.80;;;7.60;;
13969;SDS011;7057;49.984;8.404;2022-11-15T01:31:05;11.30;;;8.23;;
13969;SDS011;7057;49.984;8.404;2022-11-15T01:33:34;12.13;;;7.60;;
13969;SDS011;7057;49.984;8.404;2022-11-15T01:36:03;12.33;;;8.50;;
13969;SDS011;7057;49.984;8.404;2022-11-15T01:38:31;14.10;;;8.27;;
13969;SDS011;7057;49.984;8.404;2022-11-15T01:40:59;11.00;;;7.63;;
13969;SDS011;7057;49.984;8.404;2022-11-15T01:43:28;9.83;;;8.30;;
13969;SDS011;7057;49.984;8.404;2022-11-15T01:45:58;11.53;;;8.40;;
13969;SDS011;7057;49.984;8.404;2022-11-15T01:48:31;12.70;;;8.47;;
13969;SDS011;7057;49.984;8.404;2022-11-15T01:51:00;11.10;;;8.40;;
13969;SDS011;7057;49.984;8.404;2022-11-15T01:53:31;14.63;;;8.43;;
13969;SDS011;7057;49.984;8.404;2022-11-15T01:56:02;13.33;;;8.53;;
13969;SDS011;7057;49.984;8.404;2022-11-15T01:58:33;10.63;;;8.00;;
13969;SDS011;7057;49.984;8.404;2022-11-15T02:01:01;10.40;;;8.47;;
13969;SDS011;7057;49.984;8.404;2022-11-15T02:03:31;10.27;;;8.57;;
13969;SDS011;7057;49.984;8.404;2022-11-15T02:06:03;12.07;;;8.43;;
13969;SDS011;7057;49.984;8.404;2022-11-15T02:08:31;12.83;;;8.60;;
13969;SDS011;7057;49.984;8.404;2022-11-15T02:10:58;12.77;;;8.43;;
13969;SDS011;7057;49.984;8.404;2022-11-15T02:13:27;10.80;;;8.40;;
13969;SDS011;7057;49.984;8.404;2022-11-15T02:15:56;11.93;;;9.03;;
13969;SDS011;7057;49.984;8.404;2022-11-15T02:18:35;10.03;;;7.70;;
13969;SDS011;7057;49.984;8.404;2022-11-15T02:21:11;11.10;;;8.43;;
13969;SDS011;7057;49.984;8.404;2022-11-15T02:26:50;10.83;;;7.67;;
13969;SDS011;7057;49.984;8.404;2022-11-15T02:29:42;12.73;;;8.00;;
13969;SDS011;7057;49.984;8.404;2022-11-15T02:32:25;12.33;;;8.83;;
13969;SDS011;7057;49.984;8.404;2022-11-15T02:35:02;11.60;;;8.73;;
13969;SDS011;7057;49.984;8.404;2022-11-15T02:37:39;13.37;;;7.90;;
13969;SDS011;7057;49.984;8.404;2022-11-15T02:40:15;12.87;;;7.70;;
13969;SDS011;7057;49.984;8.404;2022-11-15T02:42:50;12.50;;;7.97;;
13969;SDS011;7057;49.984;8.404;2022-11-15T02:45:40;10.20;;;7.73;;
13969;SDS011;7057;49.984;8.404;2022-11-15T02:48:14;11.20;;;7.77;;
13969;SDS011;7057;49.984;8.404;2022-11-15T02:50:43;8.53;;;7.23;;
13969;SDS011;7057;49.984;8.404;2022-11-15T02:53:11;11.80;;;8.00;;
13969;SDS011;7057;49.984;8.404;2022-11-15T02:55:41;10.67;;;7.27;;
13969;SDS011;7057;49.984;8.404;2022-11-15T02:58:17;12.10;;;8.27;;
13969;SDS011;7057;49.984;8.404;2022-11-15T03:01:04;10.63;;;8.20;;
13969;SDS011;7057;49.984;8.404;2022-11-15T03:03:45;11.77;;;8.73;;
13969;SDS011;7057;49.984;8.404;2022-11-15T03:06:25;12.40;;;8.20;;
13969;SDS011;7057;49.984;8.404;2022-11-15T03:09:02;10.47;;;7.50;;
13969;SDS011;7057;49.984;8.404;2022-11-15T03:11:32;10.97;;;7.67;;
13969;SDS011;7057;49.984;8.404;2022-11-15T03:14:06;12.63;;;7.90;;
13969;SDS011;7057;49.984;8.404;2022-11-15T03:16:42;10.73;;;7.33;;
13969;SDS011;7057;49.984;8.404;2022-11-15T03:19:17;10.53;;;7.40;;
13969;SDS011;7057;49.984;8.404;2022-11-15T03:21:49;10.80;;;7.70;;
13969;SDS011;7057;49.984;8.404;2022-11-15T03:24:19;11.40;;;7.83;;
13969;SDS011;7057;49.984;8.404;2022-11-15T03:26:47;9.83;;;7.30;;
13969;SDS011;7057;49.984;8.404;2022-11-15T03:29:17;11.23;;;8.40;;
13969;SDS011;7057;49.984;8.404;2022-11-15T03:31:50;10.33;;;7.50;;
13969;SDS011;7057;49.984;8.404;2022-11-15T03:34:25;11.90;;;7.57;;
13969;SDS011;7057;49.984;8.404;2022-11-15T03:36:54;10.43;;;7.97;;
13969;SDS011;7057;49.984;8.404;2022-11-15T03:39:22;10.40;;;7.83;;
13969;SDS011;7057;49.984;8.404;2022-11-15T03:41:53;10.63;;;7.60;;
13969;SDS011;7057;49.984;8.404;2022-11-15T03:44:31;10.30;;;7.17;;
13969;SDS011;7057;49.984;8.404;2022-11-15T03:47:03;9.97;;;7.77;;
13969;SDS011;7057;49.984;8.404;2022-11-15T03:49:38;10.10;;;6.93;;
13969;SDS011;7057;49.984;8.404;2022-11-15T03:52:10;9.23;;;7.20;;
13969;SDS011;7057;49.984;8.404;2022-11-15T03:54:47;8.10;;;5.97;;
13969;SDS011;7057;49.984;8.404;2022-11-15T03:57:15;8.33;;;6.40;;
13969;SDS011;7057;49.984;8.404;2022-11-15T03:59:42;9.27;;;6.57;;
13969;SDS011;7057;49.984;8.404;2022-11-15T04:02:10;8.50;;;6.60;;
13969;SDS011;7057;49.984;8.404;2022-11-15T04:04:38;10.77;;;6.60;;
13969;SDS011;7057;49.984;8.404;2022-11-15T04:07:06;10.43;;;6.60;;
13969;SDS011;7057;49.984;8.404;2022-11-15T04:09:33;8.67;;;6.07;;
13969;SDS011;7057;49.984;8.404;2022-11-15T04:12:20;9.63;;;6.43;;
13969;SDS011;7057;49.984;8.404;2022-11-15T04:14:56;10.40;;;6.57;;
13969;SDS011;7057;49.984;8.404;2022-11-15T04:17:37;9.57;;;5.60;;
13969;SDS011;7057;49.984;8.404;2022-11-15T04:20:08;10.50;;;6.77;;
13969;SDS011;7057;49.984;8.404;2022-11-15T04:22:55;7.47;;;5.60;;
13969;SDS011;7057;49.984;8.404;2022-11-15T04:25:40;10.53;;;6.50;;
13969;SDS011;7057;49.984;8.404;2022-11-15T04:28:08;9.80;;;5.87;;
13969;SDS011;7057;49.984;8.404;2022-11-15T04:30:35;11.57;;;6.20;;
13969;SDS011;7057;49.984;8.404;2022-11-15T04:33:03;10.10;;;5.97;;
13969;SDS011;7057;49.984;8.404;2022-11-15T04:35:32;7.97;;;6.07;;
13969;SDS011;7057;49.984;8.404;2022-11-15T04:37:59;7.47;;;5.47;;
13969;SDS011;7057;49.984;8.404;2022-11-15T04:40:27;8.17;;;5.80;;
13969;SDS011;7057;49.984;8.404;2022-11-15T04:42:54;7.43;;;6.10;;
13969;SDS011;7057;49.984;8.404;2022-11-15T04:45:21;10.07;;;6.43;;
13969;SDS011;7057;49.984;8.404;2022-11-15T04:47:49;8.50;;;5.67;;
13969;SDS011;7057;49.984;8.404;2022-11-15T04:50:16;9.37;;;6.10;;
13969;SDS011;7057;49.984;8.404;2022-11-15T04:52:49;10.60;;;5.67;;
13969;SDS011;7057;49.984;8.404;2022-11-15T04:55:17;6.93;;;6.13;;
13969;SDS011;7057;49.984;8.404;2022-11-15T04:57:45;8.57;;;5.80;;
13969;SDS011;7057;49.984;8.404;2022-11-15T05:00:12;7.97;;;6.00;;
13969;SDS011;7057;49.984;8.404;2022-11-15T05:02:41;8.00;;;6.00;;
13969;SDS011;7057;49.984;8.404;2022-11-15T05:05:26;9.80;;;6.20;;
13969;SDS011;7057;49.984;8.404;2022-11-15T05:07:55;10.57;;;6.67;;
13969;SDS011;7057;49.984;8.404;2022-11-15T05:10:22;10.37;;;7.20;;
13969;SDS011;7057;49.984;8.404;2022-11-15T05:12:49;13.00;;;7.37;;
13969;SDS011;7057;49.984;8.404;2022-11-15T05:15:16;10.53;;;7.50;;
13969;SDS011;7057;49.984;8.404;2022-11-15T05:17:43;10.67;;;7.40;;
13969;SDS011;7057;49.984;8.404;2022-11-15T05:20:11;10.57;;;7.03;;
13969;SDS011;7057;49.984;8.404;2022-11-15T05:22:38;8.87;;;6.80;;
13969;SDS011;7057;49.984;8.404;2022-11-15T05:25:08;9.87;;;6.93;;
13969;SDS011;7057;49.984;8.404;2022-11-15T05:27:35;9.47;;;6.20;;
13969;SDS011;7057;49.984;8.404;2022-11-15T05:30:02;9.87;;;6.40;;
13969;SDS011;7057;49.984;8.404;2022-11-15T05:32:30;9.10;;;6.80;;
13969;SDS011;7057;49.984;8.404;2022-11-15T05:34:57;8.53;;;6.20;;
13969;SDS011;7057;49.984;8.404;2022-11-15T05:37:25;9.67;;;5.77;;
13969;SDS011;7057;49.984;8.404;2022-11-15T05:39:52;8.03;;;6.00;;
13969;SDS011;7057;49.984;8.404;2022-11-15T05:42:21;7.73;;;6.90;;
13969;SDS011;7057;49.984;8.404;2022-11-15T05:44:48;7.90;;;5.83;;
13969;SDS011;7057;49.984;8.404;2022-11-15T05:47:17;10.03;;;6.17;;
13969;SDS011;7057;49.984;8.404;2022-11-15T05:49:47;7.20;;;5.93;;
13969;SDS011;7057;49.984;8.404;2022-11-15T05:52:16;10.23;;;6.30;;
13969;SDS011;7057;49.984;8.404;2022-11-15T05:54:46;7.33;;;5.57;;
13969;SDS011;7057;49.984;8.404;2022-11-15T05:57:13;9.63;;;6.23;;
13969;SDS011;7057;49.984;8.404;2022-11-15T05:59:42;8.00;;;6.03;;
13969;SDS011;7057;49.984;8.404;2022-11-15T06:02:10;7.97;;;6.20;;
13969;SDS011;7057;49.984;8.404;2022-11-15T06:04:37;7.93;;;5.53;;
13969;SDS011;7057;49.984;8.404;2022-11-15T06:07:04;8.07;;;5.70;;
13969;SDS011;7057;49.984;8.404;2022-11-15T06:09:31;9.07;;;5.43;;
13969;SDS011;7057;49.984;8.404;2022-11-15T06:11:59;9.33;;;5.80;;
13969;SDS011;7057;49.984;8.404;2022-11-15T06:14:26;8.07;;;5.50;;
13969;SDS011;7057;49.984;8.404;2022-11-15T06:16:55;8.20;;;5.17;;
13969;SDS011;7057;49.984;8.404;2022-11-15T06:19:22;8.20;;;5.50;;
13969;SDS011;7057;49.984;8.404;2022-11-15T06:21:49;10.03;;;5.13;;
13969;SDS011;7057;49.984;8.404;2022-11-15T06:24:16;8.03;;;5.70;;
13969;SDS011;7057;49.984;8.404;2022-11-15T06:26:43;9.10;;;6.07;;
13969;SDS011;7057;49.984;8.404;2022-11-15T06:29:10;8.43;;;5.40;;
13969;SDS011;7057;49.984;8.404;2022-11-15T06:31:38;9.10;;;6.43;;
13969;SDS011;7057;49.984;8.404;2022-11-15T06:34:06;8.03;;;6.17;;
13969;SDS011;7057;49.984;8.404;2022-11-15T06:36:33;8.60;;;6.50;;
13969;SDS011;7057;49.984;8.404;2022-11-15T06:39:01;8.33;;;5.53;;
13969;SDS011;7057;49.984;8.404;2022-11-15T06:41:29;9.90;;;6.33;;
13969;SDS011;7057;49.984;8.404;2022-11-15T06:43:56;11.50;;;6.50;;
13969;SDS011;7057;49.984;8.404;2022-11-15T06:46:23;7.93;;;5.70;;
13969;SDS011;7057;49.984;8.404;2022-11-15T06:48:50;8.87;;;6.77;;
13969;SDS011;7057;49.984;8.404;2022-11-15T06:51:19;9.33;;;6.27;;
13969;SDS011;7057;49.984;8.404;2022-11-15T06:53:46;10.00;;;6.33;;
13969;SDS011;7057;49.984;8.404;2022-11-15T06:56:14;10.20;;;6.00;;
13969;SDS011;7057;49.984;8.404;2022-11-15T06:58:41;7.93;;;5.70;;
13969;SDS011;7057;49.984;8.404;2022-11-15T07:01:09;7.07;;;5.57;;
13969;SDS011;7057;49.984;8.404;2022-11-15T07:03:38;12.53;;;6.47;;
13969;SDS011;7057;49.984;8.404;2022-11-15T07:06:06;11.40;;;7.53;;
13969;SDS011;7057;49.984;8.404;2022-11-15T07:08:36;9.80;;;7.87;;
13969;SDS011;7057;49.984;8.404;2022-11-15T07:11:04;10.00;;;7.07;;
13969;SDS011;7057;49.984;8.404;2022-11-15T07:13:34;9.83;;;6.70;;
13969;SDS011;7057;49.984;8.404;2022-11-15T07:16:04;10.63;;;7.27;;
13969;SDS011;7057;49.984;8.404;2022-11-15T07:18:33;9.07;;;6.67;;
13969;SDS011;7057;49.984;8.404;2022-11-15T07:21:02;7.67;;;6.17;;
13969;SDS011;7057;49.984;8.404;2022-11-15T07:23:29;9.43;;;6.20;;
13969;SDS011;7057;49.984;8.404;2022-11-15T07:25:58;7.80;;;5.90;;
13969;SDS011;7057;49.984;8.404;2022-11-15T07:28:25;7.23;;;5.83;;
13969;SDS011;7057;49.984;8.404;2022-11-15T07:30:53;9.53;;;6.27;;
13969;SDS011;7057;49.984;8.404;2022-11-15T07:33:20;10.37;;;5.80;;
13969;SDS011;7057;49.984;8.404;2022-11-15T07:35:48;7.57;;;5.40;;
13969;SDS011;7057;49.984;8.404;2022-11-15T07:38:15;8.50;;;5.47;;
13969;SDS011;7057;49.984;8.404;2022-11-15T07:40:44;8.23;;;6.10;;
13969;SDS011;7057;49.984;8.404;2022-11-15T07:43:14;11.57;;;6.23;;
13969;SDS011;7057;49.984;8.404;2022-11-15T07:45:41;9.83;;;5.57;;
13969;SDS011;7057;49.984;8.404;2022-11-15T07:48:09;8.20;;;5.53;;
13969;SDS011;7057;49.984;8.404;2022-11-15T07:50:36;8.63;;;5.70;;
13969;SDS011;7057;49.984;8.404;2022-11-15T07:53:07;12.23;;;8.00;;
13969;SDS011;7057;49.984;8.404;2022-11-15T07:55:35;10.73;;;9.13;;
13969;SDS011;7057;49.984;8.404;2022-11-15T07:58:02;12.90;;;10.10;;
13969;SDS011;7057;49.984;8.404;2022-11-15T08:00:32;11.67;;;8.97;;
13969;SDS011;7057;49.984;8.404;2022-11-15T08:03:03;9.60;;;6.57;;
13969;SDS011;7057;49.984;8.404;2022-11-15T08:05:31;7.27;;;6.10;;
13969;SDS011;7057;49.984;8.404;2022-11-15T08:07:59;7.53;;;5.80;;
13969;SDS011;7057;49.984;8.404;2022-11-15T08:10:26;7.40;;;6.10;;
13969;SDS011;7057;49.984;8.404;2022-11-15T08:12:57;8.60;;;5.60;;
13969;SDS011;7057;49.984;8.404;2022-11-15T08:15:25;8.03;;;5.83;;
13969;SDS011;7057;49.984;8.404;2022-11-15T08:17:55;8.00;;;6.20;;
13969;SDS011;7057;49.984;8.404;2022-11-15T08:20:23;7.67;;;5.73;;
13969;SDS011;7057;49.984;8.404;2022-11-15T08:22:50;9.23;;;6.23;;
13969;SDS011;7057;49.984;8.404;2022-11-15T08:25:18;9.33;;;6.53;;
13969;SDS011;7057;49.984;8.404;2022-11-15T08:27:45;10.30;;;7.20;;
13969;SDS011;7057;49.984;8.404;2022-11-15T08:30:12;11.17;;;7.90;;
13969;SDS011;7057;49.984;8.404;2022-11-15T08:32:41;12.47;;;7.93;;
13969;SDS011;7057;49.984;8.404;2022-11-15T08:35:09;10.87;;;6.60;;
13969;SDS011;7057;49.984;8.404;2022-11-15T08:37:37;7.47;;;6.53;;
13969;SDS011;7057;49.984;8.404;2022-11-15T08:40:04;12.60;;;7.63;;
13969;SDS011;7057;49.984;8.404;2022-11-15T08:42:32;11.17;;;9.53;;
13969;SDS011;7057;49.984;8.404;2022-11-15T08:45:00;12.40;;;10.57;;
13969;SDS011;7057;49.984;8.404;2022-11-15T08:47:27;13.80;;;11.57;;
13969;SDS011;7057;49.984;8.404;2022-11-15T08:49:54;13.23;;;11.37;;
13969;SDS011;7057;49.984;8.404;2022-11-15T08:52:23;13.33;;;10.90;;
13969;SDS011;7057;49.984;8.404;2022-11-15T08:54:50;11.63;;;9.83;;
13969;SDS011;7057;49.984;8.404;2022-11-15T08:57:17;11.27;;;9.60;;
13969;SDS011;7057;49.984;8.404;2022-11-15T08:59:44;13.27;;;8.13;;
13969;SDS011;7057;49.984;8.404;2022-11-15T09:02:12;8.23;;;7.20;;
13969;SDS011;7057;49.984;8.404;2022-11-15T09:04:40;9.47;;;7.63;;
13969;SDS011;7057;49.984;8.404;2022-11-15T09:07:08;10.97;;;7.40;;
13969;SDS011;7057;49.984;8.404;2022-11-15T09:09:37;10.70;;;7.47;;
13969;SDS011;7057;49.984;8.404;2022-11-15T09:12:05;11.20;;;7.30;;
13969;SDS011;7057;49.984;8.404;2022-11-15T09:14:32;10.23;;;7.90;;
13969;SDS011;7057;49.984;8.404;2022-11-15T09:17:00;9.17;;;6.73;;
13969;SDS011;7057;49.984;8.404;2022-11-15T09:19:28;7.83;;;6.33;;
13969;SDS011;7057;49.984;8.404;2022-11-15T09:21:55;8.13;;;6.33;;
13969;SDS011;7057;49.984;8.404;2022-11-15T09:24:22;9.53;;;6.57;;
13969;SDS011;7057;49.984;8.404;2022-11-15T09:26:51;7.50;;;6.40;;
13969;SDS011;7057;49.984;8.404;2022-11-15T09:29:18;8.00;;;5.87;;
13969;SDS011;7057;49.984;8.404;2022-11-15T09:31:45;7.93;;;5.80;;
13969;SDS011;7057;49.984;8.404;2022-11-15T09:34:13;9.40;;;6.43;;
13969;SDS011;7057;49.984;8.404;2022-11-15T09:36:40;7.23;;;5.53;;
13969;SDS011;7057;49.984;8.404;2022-11-15T09:39:07;6.37;;;5.50;;
13969;SDS011;7057;49.984;8.404;2022-11-15T09:41:43;7.70;;;5.97;;
13969;SDS011;7057;49.984;8.404;2022-11-15T09:44:26;8.63;;;5.70;;
13969;SDS011;7057;49.984;8.404;2022-11-15T09:47:05;6.97;;;5.37;;
13969;SDS011;7057;49.984;8.404;2022-11-15T09:49:50;8.80;;;6.27;;
13969;SDS011;7057;49.984;8.404;2022-11-15T09:52:19;7.20;;;5.37;;
13969;SDS011;7057;49.984;8.404;2022-11-15T09:54:48;7.83;;;5.77;;
13969;SDS011;7057;49.984;8.404;2022-11-15T09:57:19;8.23;;;5.70;;
13969;SDS011;7057;49.984;8.404;2022-11-15T09:59:56;8.00;;;5.60;;
13969;SDS011;7057;49.984;8.404;2022-11-15T10:02:33;7.83;;;6.27;;
13969;SDS011;7057;49.984;8.404;2022-11-15T10:05:10;9.37;;;5.90;;
13969;SDS011;7057;49.984;8.404;2022-11-15T10:07:43;9.87;;;6.70;;
13969;SDS011;7057;49.984;8.404;2022-11-15T10:10:15;9.33;;;5.90;;
13969;SDS011;7057;49.984;8.404;2022-11-15T10:12:53;8.47;;;5.87;;
13969;SDS011;7057;49.984;8.404;2022-11-15T10:15:21;8.43;;;6.33;;
13969;SDS011;7057;49.984;8.404;2022-11-15T10:20:38;9.13;;;6.63;;
13969;SDS011;7057;49.984;8.404;2022-11-15T10:23:13;9.03;;;6.10;;
13969;SDS011;7057;49.984;8.404;2022-11-15T10:25:43;7.80;;;6.00;;
13969;SDS011;7057;49.984;8.404;2022-11-15T10:28:13;14.77;;;7.37;;
13969;SDS011;7057;49.984;8.404;2022-11-15T10:30:44;9.43;;;6.00;;
13969;SDS011;7057;49.984;8.404;2022-11-15T10:33:20;8.97;;;6.17;;
13969;SDS011;7057;49.984;8.404;2022-11-15T10:38:54;7.23;;;6.00;;
13969;SDS011;7057;49.984;8.404;2022-11-15T10:41:28;8.90;;;5.87;;
13969;SDS011;7057;49.984;8.404;2022-11-15T10:46:48;7.23;;;6.40;;
13969;SDS011;7057;49.984;8.404;2022-11-15T10:49:30;8.90;;;6.30;;
13969;SDS011;7057;49.984;8.404;2022-11-15T10:51:59;9.00;;;6.27;;
13969;SDS011;7057;49.984;8.404;2022-11-15T10:54:30;10.83;;;5.97;;
13969;SDS011;7057;49.984;8.404;2022-11-15T10:57:13;6.80;;;6.10;;
13969;SDS011;7057;49.984;8.404;2022-11-15T10:59:45;9.00;;;6.43;;
13969;SDS011;7057;49.984;8.404;2022-11-15T11:02:30;11.13;;;6.77;;
13969;SDS011;7057;49.984;8.404;2022-11-15T11:04:59;8.23;;;6.40;;
13969;SDS011;7057;49.984;8.404;2022-11-15T11:07:28;9.93;;;5.93;;
13969;SDS011;7057;49.984;8.404;2022-11-15T11:09:59;10.10;;;6.20;;
13969;SDS011;7057;49.984;8.404;2022-11-15T11:12:28;8.30;;;6.60;;
13969;SDS011;7057;49.984;8.404;2022-11-15T11:14:59;10.23;;;6.07;;
13969;SDS011;7057;49.984;8.404;2022-11-15T11:17:32;9.67;;;6.50;;
13969;SDS011;7057;49.984;8.404;2022-11-15T11:20:07;7.40;;;5.80;;
13969;SDS011;7057;49.984;8.404;2022-11-15T11:22:45;11.00;;;5.80;;
13969;SDS011;7057;49.984;8.404;2022-11-15T11:25:27;10.20;;;6.00;;
13969;SDS011;7057;49.984;8.404;2022-11-15T11:28:05;7.47;;;5.90;;
13969;SDS011;7057;49.984;8.404;2022-11-15T11:30:46;8.33;;;6.17;;
13969;SDS011;7057;49.984;8.404;2022-11-15T11:33:21;8.43;;;6.40;;
13969;SDS011;7057;49.984;8.404;2022-11-15T11:35:57;10.83;;;7.07;;
13969;SDS011;7057;49.984;8.404;2022-11-15T11:38:39;9.50;;;5.97;;
13969;SDS011;7057;49.984;8.404;2022-11-15T11:41:20;8.60;;;6.20;;
13969;SDS011;7057;49.984;8.404;2022-11-15T11:44:07;6.80;;;5.73;;
13969;SDS011;7057;49.984;8.404;2022-11-15T11:46:50;7.37;;;6.37;;
13969;SDS011;7057;49.984;8.404;2022-11-15T11:49:23;8.30;;;5.73;;
13969;SDS011;7057;49.984;8.404;2022-11-15T11:51:55;9.00;;;6.13;;
13969;SDS011;7057;49.984;8.404;2022-11-15T11:54:30;8.73;;;5.93;;
13969;SDS011;7057;49.984;8.404;2022-11-15T11:57:03;8.93;;;5.77;;
13969;SDS011;7057;49.984;8.404;2022-11-15T11:59:39;14.00;;;6.00;;
13969;SDS011;7057;49.984;8.404;2022-11-15T12:02:15;10.60;;;5.70;;
13969;SDS011;7057;49.984;8.404;2022-11-15T12:04:47;9.20;;;5.97;;
13969;SDS011;7057;49.984;8.404;2022-11-15T12:07:20;7.93;;;5.57;;
13969;SDS011;7057;49.984;8.404;2022-11-15T12:09:52;6.73;;;5.40;;
13969;SDS011;7057;49.984;8.404;2022-11-15T12:12:25;7.67;;;5.93;;
13969;SDS011;7057;49.984;8.404;2022-11-15T12:14:57;7.47;;;5.63;;
13969;SDS011;7057;49.984;8.404;2022-11-15T12:17:30;6.17;;;5.33;;
13969;SDS011;7057;49.984;8.404;2022-11-15T12:19:59;8.77;;;5.40;;
13969;SDS011;7057;49.984;8.404;2022-11-15T12:22:33;8.47;;;5.77;;
13969;SDS011;7057;49.984;8.404;2022-11-15T12:25:05;8.83;;;5.87;;
13969;SDS011;7057;49.984;8.404;2022-11-15T12:27:40;6.87;;;5.27;;
13969;SDS011;7057;49.984;8.404;2022-11-15T12:30:12;8.40;;;5.70;;
13969;SDS011;7057;49.984;8.404;2022-11-15T12:32:50;8.43;;;6.07;;
13969;SDS011;7057;49.984;8.404;2022-11-15T12:35:21;6.50;;;5.83;;
13969;SDS011;7057;49.984;8.404;2022-11-15T12:37:51;6.57;;;5.83;;
13969;SDS011;7057;49.984;8.404;2022-11-15T12:40:31;10.03;;;5.70;;
13969;SDS011;7057;49.984;8.404;2022-11-15T12:43:02;6.97;;;6.00;;
13969;SDS011;7057;49.984;8.404;2022-11-15T12:45:45;9.43;;;6.27;;
13969;SDS011;7057;49.984;8.404;2022-11-15T12:54:55;9.53;;;5.80;;
13969;SDS011;7057;49.984;8.404;2022-11-15T12:57:41;10.10;;;6.10;;
13969;SDS011;7057;49.984;8.404;2022-11-15T13:03:20;8.60;;;5.87;;
13969;SDS011;7057;49.984;8.404;2022-11-15T13:05:57;7.13;;;5.60;;
13969;SDS011;7057;49.984;8.404;2022-11-15T13:08:42;7.93;;;5.20;;
13969;SDS011;7057;49.984;8.404;2022-11-15T13:17:27;6.40;;;5.33;;
13969;SDS011;7057;49.984;8.404;2022-11-15T13:19:59;6.50;;;5.07;;
13969;SDS011;7057;49.984;8.404;2022-11-15T13:22:44;9.60;;;5.60;;
13969;SDS011;7057;49.984;8.404;2022-11-15T13:25:23;7.97;;;5.30;;
13969;SDS011;7057;49.984;8.404;2022-11-15T13:28:18;7.43;;;5.37;;
13969;SDS011;7057;49.984;8.404;2022-11-15T13:30:49;9.43;;;4.87;;
13969;SDS011;7057;49.984;8.404;2022-11-15T13:33:19;7.03;;;5.00;;
13969;SDS011;7057;49.984;8.404;2022-11-15T13:35:48;7.17;;;4.73;;
13969;SDS011;7057;49.984;8.404;2022-11-15T13:38:18;5.33;;;4.53;;
13969;SDS011;7057;49.984;8.404;2022-11-15T13:40:53;6.80;;;4.70;;
13969;SDS011;7057;49.984;8.404;2022-11-15T13:43:27;6.83;;;4.37;;
13969;SDS011;7057;49.984;8.404;2022-11-15T13:46:04;6.67;;;4.60;;
13969;SDS011;7057;49.984;8.404;2022-11-15T13:48:33;6.53;;;4.53;;
13969;SDS011;7057;49.984;8.404;2022-11-15T13:51:00;6.10;;;4.53;;
13969;SDS011;7057;49.984;8.404;2022-11-15T13:53:30;5.27;;;4.40;;
13969;SDS011;7057;49.984;8.404;2022-11-15T13:55:59;7.50;;;4.53;;
13969;SDS011;7057;49.984;8.404;2022-11-15T13:58:28;9.93;;;4.50;;
13969;SDS011;7057;49.984;8.404;2022-11-15T14:00:59;6.40;;;4.40;;
13969;SDS011;7057;49.984;8.404;2022-11-15T14:03:28;5.80;;;4.20;;
13969;SDS011;7057;49.984;8.404;2022-11-15T14:06:04;5.70;;;4.27;;
13969;SDS011;7057;49.984;8.404;2022-11-15T14:08:37;5.40;;;4.10;;
13969;SDS011;7057;49.984;8.404;2022-11-15T14:11:06;7.47;;;4.57;;
13969;SDS011;7057;49.984;8.404;2022-11-15T14:13:37;5.27;;;4.30;;
13969;SDS011;7057;49.984;8.404;2022-11-15T14:16:14;7.20;;;4.73;;
13969;SDS011;7057;49.984;8.404;2022-11-15T14:18:44;4.97;;;4.10;;
13969;SDS011;7057;49.984;8.404;2022-11-15T14:21:13;6.03;;;4.07;;
13969;SDS011;7057;49.984;8.404;2022-11-15T14:23:40;5.93;;;4.13;;
13969;SDS011;7057;49.984;8.404;2022-11-15T14:26:11;4.80;;;3.97;;
13969;SDS011;7057;49.984;8.404;2022-11-15T14:28:55;4.93;;;3.23;;
13969;SDS011;7057;49.984;8.404;2022-11-15T14:31:22;5.57;;;3.93;;
13969;SDS011;7057;49.984;8.404;2022-11-15T14:33:49;4.87;;;3.70;;
13969;SDS011;7057;49.984;8.404;2022-11-15T14:36:17;4.37;;;3.23;;
13969;SDS011;7057;49.984;8.404;2022-11-15T14:38:46;4.33;;;3.37;;
13969;SDS011;7057;49.984;8.404;2022-11-15T14:41:20;4.93;;;3.23;;
13969;SDS011;7057;49.984;8.404;2022-11-15T14:43:49;3.73;;;3.10;;
13969;SDS011;7057;49.984;8.404;2022-11-15T14:46:18;3.23;;;2.80;;
13969;SDS011;7057;49.984;8.404;2022-11-15T14:48:45;4.03;;;3.13;;
13969;SDS011;7057;49.984;8.404;2022-11-15T14:51:13;3.20;;;2.77;;
13969;SDS011;7057;49.984;8.404;2022-11-15T14:53:42;6.00;;;3.17;;
13969;SDS011;7057;49.984;8.404;2022-11-15T14:56:11;3.97;;;2.90;;
13969;SDS011;7057;49.984;8.404;2022-11-15T14:58:38;4.43;;;3.00;;
13969;SDS011;7057;49.984;8.404;2022-11-15T15:01:10;3.67;;;2.87;;
13969;SDS011;7057;49.984;8.404;2022-11-15T15:03:41;3.20;;;2.47;;
13969;SDS011;7057;49.984;8.404;2022-11-15T15:06:09;3.97;;;2.70;;
13969;SDS011;7057;49.984;8.404;2022-11-15T15:08:38;3.37;;;2.80;;
13969;SDS011;7057;49.984;8.404;2022-11-15T15:11:07;5.43;;;3.50;;
13969;SDS011;7057;49.984;8.404;2022-11-15T15:13:39;4.50;;;3.00;;
13969;SDS011;7057;49.984;8.404;2022-11-15T15:16:07;4.33;;;2.90;;
13969;SDS011;7057;49.984;8.404;2022-11-15T15:18:34;3.87;;;2.60;;
13969;SDS011;7057;49.984;8.404;2022-11-15T15:21:02;3.77;;;2.57;;
13969;SDS011;7057;49.984;8.404;2022-11-15T15:23:39;3.73;;;3.00;;
13969;SDS011;7057;49.984;8.404;2022-11-15T15:26:06;4.90;;;3.40;;
13969;SDS011;7057;49.984;8.404;2022-11-15T15:28:34;4.57;;;2.80;;
13969;SDS011;7057;49.984;8.404;2022-11-15T15:31:02;5.67;;;3.03;;
13969;SDS011;7057;49.984;8.404;2022-11-15T15:33:29;4.43;;;3.20;;
13969;SDS011;7057;49.984;8.404;2022-11-15T15:35:56;5.27;;;2.70;;
13969;SDS011;7057;49.984;8.404;2022-11-15T15:38:25;5.97;;;3.17;;
13969;SDS011;7057;49.984;8.404;2022-11-15T15:40:53;4.43;;;3.30;;
13969;SDS011;7057;49.984;8.404;2022-11-15T15:43:20;4.90;;;3.20;;